createdAt,value
2018-09-14T00:00:24.387Z,1015.15
2018-09-14T00:01:24.410Z,1015.15
2018-09-14T00:02:24.423Z,1015.11
2018-09-14T00:03:24.448Z,1015.14
2018-09-14T00:04:24.464Z,1015.11
2018-09-14T00:05:24.490Z,1015.13
2018-09-14T00:06:24.502Z,1015.11
2018-09-14T00:07:24.528Z,1015.05
2018-09-14T00:08:24.542Z,1015.10
2018-09-14T00:09:24.571Z,1015.05
2018-09-14T00:10:24.581Z,1015.05
2018-09-14T00:11:24.607Z,1015.05
2018-09-14T00:12:24.621Z,1015.07
2018-09-14T00:13:24.650Z,1015.05
2018-09-14T00:14:24.661Z,1015.06
2018-09-14T00:15:24.685Z,1015.04
2018-09-14T00:16:24.699Z,1015.06
2018-09-14T00:17:24.726Z,1015.02
2018-09-14T00:18:24.738Z,1015.04
2018-09-14T00:19:24.765Z,1015.01
2018-09-14T00:20:24.778Z,1015.00
2018-09-14T00:21:24.804Z,1015.01
2018-09-14T00:22:24.817Z,1014.96
2018-09-14T00:23:24.844Z,1014.98
2018-09-14T00:24:24.857Z,1014.97
2018-09-14T00:25:24.884Z,1014.93
2018-09-14T00:26:24.909Z,1014.95
2018-09-14T00:27:24.923Z,1014.94
2018-09-14T00:28:24.936Z,1014.97
2018-09-14T00:29:24.965Z,1014.91
2018-09-14T00:30:24.977Z,1014.92
2018-09-14T00:31:25.001Z,1014.93
2018-09-14T00:32:25.015Z,1014.94
2018-09-14T00:33:25.047Z,1014.97
2018-09-14T00:34:25.053Z,1014.92
2018-09-14T00:35:25.080Z,1014.90
2018-09-14T00:36:25.109Z,1014.93
2018-09-14T00:37:25.120Z,1014.95
2018-09-14T00:38:25.133Z,1014.94
2018-09-14T00:39:25.160Z,1014.88
2018-09-14T00:40:25.173Z,1014.89
2018-09-14T00:41:25.200Z,1014.86
2018-09-14T00:42:25.212Z,1014.83
2018-09-14T00:43:25.239Z,1014.87
2018-09-14T00:44:25.258Z,1014.84
2018-09-14T00:45:25.282Z,1014.87
2018-09-14T00:46:25.291Z,1014.88
2018-09-14T00:47:25.317Z,1014.91
2018-09-14T00:48:25.331Z,1014.90
2018-09-14T00:49:25.364Z,1014.92
2018-09-14T00:50:25.371Z,1014.89
2018-09-14T00:51:25.395Z,1014.92
2018-09-14T00:52:25.410Z,1014.93
2018-09-14T00:53:25.436Z,1014.92
2018-09-14T00:54:25.449Z,1014.93
2018-09-14T00:55:25.488Z,1014.94
2018-09-14T00:56:25.489Z,1014.88
2018-09-14T00:57:25.516Z,1014.91
2018-09-14T00:58:25.528Z,1014.91
2018-09-14T00:59:25.553Z,1014.89
2018-09-14T01:00:25.570Z,1014.94
2018-09-14T01:01:25.594Z,1014.90
2018-09-14T01:02:25.607Z,1014.86
2018-09-14T01:03:25.633Z,1014.93
2018-09-14T01:04:25.647Z,1014.91
2018-09-14T01:05:25.672Z,1014.91
2018-09-14T01:06:25.686Z,1014.91
2018-09-14T01:07:25.712Z,1014.93
2018-09-14T01:08:25.725Z,1014.88
2018-09-14T01:09:25.752Z,1014.88
2018-09-14T01:10:25.786Z,1014.91
2018-09-14T01:11:25.793Z,1014.95
2018-09-14T01:12:25.809Z,1014.93
2018-09-14T01:13:25.831Z,1014.92
2018-09-14T01:14:25.844Z,1014.99
2018-09-14T01:15:25.870Z,1014.95
2018-09-14T01:16:25.884Z,1014.94
2018-09-14T01:17:25.910Z,1014.91
2018-09-14T01:18:25.923Z,1014.92
2018-09-14T01:19:25.962Z,1014.92
2018-09-14T01:20:25.962Z,1014.90
2018-09-14T01:21:25.988Z,1014.92
2018-09-14T01:22:26.002Z,1014.94
2018-09-14T01:23:26.027Z,1014.94
2018-09-14T01:24:26.043Z,1014.94
2018-09-14T01:25:26.067Z,1014.98
2018-09-14T01:26:26.080Z,1015.01
2018-09-14T01:27:26.107Z,1015.01
2018-09-14T01:28:26.123Z,1015.04
2018-09-14T01:29:26.147Z,1014.96
2018-09-14T01:30:26.172Z,1014.96
2018-09-14T01:31:26.198Z,1015.00
2018-09-14T01:32:26.200Z,1014.94
2018-09-14T01:33:26.225Z,1015.01
2018-09-14T01:34:26.238Z,1015.00
2018-09-14T01:35:26.264Z,1014.97
2018-09-14T01:36:26.327Z,1014.97
2018-09-14T01:37:26.304Z,1014.95
2018-09-14T01:38:26.317Z,1014.95
2018-09-14T01:39:26.344Z,1014.95
2018-09-14T01:40:26.357Z,1014.98
2018-09-14T01:41:26.382Z,1014.98
2018-09-14T01:42:26.397Z,1014.97
2018-09-14T01:43:26.421Z,1014.91
2018-09-14T01:44:26.436Z,1014.93
2018-09-14T01:45:26.462Z,1014.90
2018-09-14T01:46:26.491Z,1014.94
2018-09-14T01:47:26.500Z,1014.91
2018-09-14T01:48:26.514Z,1014.88
2018-09-14T01:49:26.541Z,1014.91
2018-09-14T01:50:26.558Z,1014.91
2018-09-14T01:51:26.579Z,1014.89
2018-09-14T01:52:26.593Z,1014.92
2018-09-14T01:53:26.620Z,1014.87
2018-09-14T01:54:26.634Z,1014.86
2018-09-14T01:55:26.658Z,1014.89
2018-09-14T01:56:26.674Z,1014.86
2018-09-14T01:57:26.698Z,1014.87
2018-09-14T01:58:26.712Z,1014.82
2018-09-14T01:59:26.739Z,1014.86
2018-09-14T02:00:26.756Z,1014.82
2018-09-14T02:01:26.778Z,1014.82
2018-09-14T02:02:26.790Z,1014.80
2018-09-14T02:03:26.877Z,1014.78
2018-09-14T02:04:26.832Z,1014.78
2018-09-14T02:05:26.861Z,1014.75
2018-09-14T02:06:26.869Z,1014.76
2018-09-14T02:07:26.895Z,1014.79
2018-09-14T02:08:26.910Z,1014.76
2018-09-14T02:09:26.936Z,1014.75
2018-09-14T02:10:26.949Z,1014.73
2018-09-14T02:11:26.974Z,1014.79
2018-09-14T02:12:26.988Z,1014.78
2018-09-14T02:13:27.014Z,1014.81
2018-09-14T02:14:27.027Z,1014.77
2018-09-14T02:15:27.054Z,1014.79
2018-09-14T02:16:27.069Z,1014.77
2018-09-14T02:17:27.096Z,1014.78
2018-09-14T02:18:27.106Z,1014.74
2018-09-14T02:19:27.132Z,1014.79
2018-09-14T02:20:27.148Z,1014.78
2018-09-14T02:21:27.172Z,1014.75
2018-09-14T02:22:27.188Z,1014.77
2018-09-14T02:23:27.226Z,1014.79
2018-09-14T02:24:27.227Z,1014.77
2018-09-14T02:25:27.272Z,1014.74
2018-09-14T02:26:27.265Z,1014.77
2018-09-14T02:27:27.290Z,1014.75
2018-09-14T02:28:27.319Z,1014.78
2018-09-14T02:29:27.330Z,1014.76
2018-09-14T02:30:27.344Z,1014.75
2018-09-14T02:31:27.371Z,1014.74
2018-09-14T02:32:27.384Z,1014.79
2018-09-14T02:33:27.409Z,1014.75
2018-09-14T02:34:27.422Z,1014.76
2018-09-14T02:35:27.448Z,1014.79
2018-09-14T02:36:27.463Z,1014.77
2018-09-14T02:37:27.488Z,1014.80
2018-09-14T02:38:27.502Z,1014.84
2018-09-14T02:39:27.526Z,1014.78
2018-09-14T02:40:27.542Z,1014.76
2018-09-14T02:41:27.566Z,1014.81
2018-09-14T02:42:27.583Z,1014.78
2018-09-14T02:43:27.607Z,1014.77
2018-09-14T02:44:27.620Z,1014.72
2018-09-14T02:45:27.646Z,1014.73
2018-09-14T02:46:27.659Z,1014.69
2018-09-14T02:47:27.703Z,1014.68
2018-09-14T02:48:27.699Z,1014.71
2018-09-14T02:49:27.727Z,1014.72
2018-09-14T02:50:27.738Z,1014.69
2018-09-14T02:51:27.764Z,1014.65
2018-09-14T02:52:27.778Z,1014.71
2018-09-14T02:53:27.805Z,1014.74
2018-09-14T02:54:27.818Z,1014.73
2018-09-14T02:55:27.844Z,1014.68
2018-09-14T02:56:27.857Z,1014.69
2018-09-14T02:57:27.886Z,1014.65
2018-09-14T02:58:27.899Z,1014.69
2018-09-14T02:59:27.922Z,1014.64
2018-09-14T03:00:27.936Z,1014.63
2018-09-14T03:01:27.962Z,1014.65
2018-09-14T03:02:27.988Z,1014.61
2018-09-14T03:03:28.000Z,1014.63
2018-09-14T03:04:28.016Z,1014.62
2018-09-14T03:05:28.041Z,1014.61
2018-09-14T03:06:28.054Z,1014.60
2018-09-14T03:07:28.080Z,1014.64
2018-09-14T03:08:28.094Z,1014.61
2018-09-14T03:09:28.120Z,1014.62
2018-09-14T03:10:28.132Z,1014.63
2018-09-14T03:11:28.158Z,1014.61
2018-09-14T03:12:28.173Z,1014.61
2018-09-14T03:13:28.186Z,1014.62
2018-09-14T03:14:28.213Z,1014.60
2018-09-14T03:15:28.226Z,1014.64
2018-09-14T03:16:28.253Z,1014.58
2018-09-14T03:17:28.266Z,1014.59
2018-09-14T03:18:28.290Z,1014.61
2018-09-14T03:19:28.318Z,1014.61
2018-09-14T03:20:28.333Z,1014.57
2018-09-14T03:21:28.347Z,1014.60
2018-09-14T03:22:28.370Z,1014.55
2018-09-14T03:23:28.383Z,1014.62
2018-09-14T03:24:28.410Z,1014.62
2018-09-14T03:25:28.422Z,1014.63
2018-09-14T03:26:28.448Z,1014.64
2018-09-14T03:27:28.467Z,1014.62
2018-09-14T03:28:28.491Z,1014.67
2018-09-14T03:29:28.502Z,1014.68
2018-09-14T03:30:28.531Z,1014.66
2018-09-14T03:31:28.541Z,1014.69
2018-09-14T03:32:28.568Z,1014.67
2018-09-14T03:33:28.581Z,1014.63
2018-09-14T03:34:28.611Z,1014.65
2018-09-14T03:35:28.621Z,1014.68
2018-09-14T03:36:28.634Z,1014.69
2018-09-14T03:37:28.660Z,1014.67
2018-09-14T03:38:28.674Z,1014.67
2018-09-14T03:39:28.699Z,1014.66
2018-09-14T03:40:28.712Z,1014.65
2018-09-14T03:41:28.750Z,1014.68
2018-09-14T03:42:28.753Z,1014.70
2018-09-14T03:43:28.782Z,1014.68
2018-09-14T03:44:28.791Z,1014.71
2018-09-14T03:45:28.816Z,1014.68
2018-09-14T03:46:28.831Z,1014.68
2018-09-14T03:47:28.866Z,1014.72
2018-09-14T03:48:28.869Z,1014.77
2018-09-14T03:49:28.908Z,1014.74
2018-09-14T03:50:28.909Z,1014.70
2018-09-14T03:51:28.936Z,1014.76
2018-09-14T03:52:28.948Z,1014.71
2018-09-14T03:53:28.974Z,1014.73
2018-09-14T03:54:28.989Z,1014.73
2018-09-14T03:55:29.015Z,1014.72
2018-09-14T03:56:29.045Z,1014.75
2018-09-14T03:57:29.056Z,1014.66
2018-09-14T03:58:29.068Z,1014.75
2018-09-14T03:59:29.094Z,1014.76
2018-09-14T04:00:29.107Z,1014.67
2018-09-14T04:01:29.133Z,1014.71
2018-09-14T04:02:29.146Z,1014.68
2018-09-14T04:03:29.172Z,1014.67
2018-09-14T04:04:29.185Z,1014.68
2018-09-14T04:05:29.200Z,1014.69
2018-09-14T04:06:29.227Z,1014.70
2018-09-14T04:07:29.243Z,1014.70
2018-09-14T04:08:29.268Z,1014.67
2018-09-14T04:09:29.280Z,1014.63
2018-09-14T04:10:29.305Z,1014.71
2018-09-14T04:11:29.319Z,1014.64
2018-09-14T04:12:29.344Z,1014.68
2018-09-14T04:13:29.460Z,1014.65
2018-09-14T04:14:29.384Z,1014.67
2018-09-14T04:15:29.397Z,1014.68
2018-09-14T04:16:29.424Z,1014.68
2018-09-14T04:17:29.436Z,1014.72
2018-09-14T04:18:29.463Z,1014.66
2018-09-14T04:19:29.492Z,1014.68
2018-09-14T04:20:29.503Z,1014.74
2018-09-14T04:21:29.518Z,1014.70
2018-09-14T04:22:29.541Z,1014.76
2018-09-14T04:23:29.628Z,1014.70
2018-09-14T04:24:29.585Z,1014.75
2018-09-14T04:25:29.597Z,1014.73
2018-09-14T04:26:29.621Z,1014.74
2018-09-14T04:27:29.635Z,1014.72
2018-09-14T04:28:29.660Z,1014.75
2018-09-14T04:29:29.675Z,1014.73
2018-09-14T04:30:29.689Z,1014.77
2018-09-14T04:31:29.714Z,1014.76
2018-09-14T04:32:29.728Z,1014.77
2018-09-14T04:33:29.753Z,1014.78
2018-09-14T04:34:29.765Z,1014.83
2018-09-14T04:35:29.793Z,1014.79
2018-09-14T04:36:29.810Z,1014.80
2018-09-14T04:37:29.839Z,1014.78
2018-09-14T04:38:29.857Z,1014.79
2018-09-14T04:39:29.871Z,1014.77
2018-09-14T04:40:29.884Z,1014.79
2018-09-14T04:41:29.910Z,1014.77
2018-09-14T04:42:29.923Z,1014.77
2018-09-14T04:43:29.952Z,1014.78
2018-09-14T04:44:29.964Z,1014.79
2018-09-14T04:45:29.989Z,1014.78
2018-09-14T04:46:30.003Z,1014.81
2018-09-14T04:47:30.029Z,1014.76
2018-09-14T04:48:30.046Z,1014.76
2018-09-14T04:49:30.072Z,1014.79
2018-09-14T04:50:30.082Z,1014.80
2018-09-14T04:51:30.190Z,1014.79
2018-09-14T04:52:30.124Z,1014.79
2018-09-14T04:53:30.148Z,1014.83
2018-09-14T04:54:30.161Z,1014.80
2018-09-14T04:55:30.187Z,1014.82
2018-09-14T04:56:30.201Z,1014.80
2018-09-14T04:57:30.228Z,1014.78
2018-09-14T04:58:30.239Z,1014.80
2018-09-14T04:59:30.254Z,1014.83
2018-09-14T05:00:30.279Z,1014.83
2018-09-14T05:01:30.294Z,1014.80
2018-09-14T05:02:30.319Z,1014.84
2018-09-14T05:03:30.335Z,1014.85
2018-09-14T05:04:30.360Z,1014.85
2018-09-14T05:05:30.384Z,1014.84
2018-09-14T05:06:30.397Z,1014.88
2018-09-14T05:07:30.420Z,1014.84
2018-09-14T05:08:30.455Z,1014.87
2018-09-14T05:09:30.454Z,1014.86
2018-09-14T05:10:30.476Z,1014.91
2018-09-14T05:11:30.490Z,1014.89
2018-09-14T05:12:30.516Z,1014.87
2018-09-14T05:13:30.529Z,1014.90
2018-09-14T05:14:30.558Z,1014.88
2018-09-14T05:15:30.569Z,1014.92
2018-09-14T05:16:30.595Z,1014.92
2018-09-14T05:17:30.609Z,1014.96
2018-09-14T05:18:30.634Z,1014.96
2018-09-14T05:19:30.648Z,1014.94
2018-09-14T05:20:30.674Z,1014.93
2018-09-14T05:21:30.687Z,1014.91
2018-09-14T05:22:30.963Z,1014.96
2018-09-14T05:23:30.728Z,1014.96
2018-09-14T05:24:30.779Z,1014.91
2018-09-14T05:25:30.766Z,1014.93
2018-09-14T05:26:30.804Z,1014.91
2018-09-14T05:27:30.806Z,1014.91
2018-09-14T05:28:30.832Z,1014.93
2018-09-14T05:29:30.846Z,1014.90
2018-09-14T05:30:30.871Z,1014.95
2018-09-14T05:31:30.888Z,1014.95
2018-09-14T05:32:30.913Z,1014.96
2018-09-14T05:33:30.926Z,1014.96
2018-09-14T05:34:30.966Z,1014.95
2018-09-14T05:35:30.964Z,1014.94
2018-09-14T05:36:30.990Z,1014.96
2018-09-14T05:37:31.005Z,1014.94
2018-09-14T05:38:31.029Z,1014.96
2018-09-14T05:39:31.043Z,1014.95
2018-09-14T05:40:31.069Z,1014.97
2018-09-14T05:41:31.095Z,1015.02
2018-09-14T05:42:31.108Z,1015.01
2018-09-14T05:43:31.122Z,1015.04
2018-09-14T05:44:31.149Z,1015.01
2018-09-14T05:45:31.160Z,1015.04
2018-09-14T05:46:31.190Z,1015.05
2018-09-14T05:47:31.202Z,1015.05
2018-09-14T05:48:31.228Z,1015.07
2018-09-14T05:49:31.240Z,1015.07
2018-09-14T05:50:31.266Z,1015.06
2018-09-14T05:51:31.293Z,1015.03
2018-09-14T05:52:31.307Z,1015.08
2018-09-14T05:53:31.320Z,1015.11
2018-09-14T05:54:31.518Z,1015.08
2018-09-14T05:55:31.373Z,1015.07
2018-09-14T05:56:31.385Z,1015.09
2018-09-14T05:57:31.411Z,1015.09
2018-09-14T05:58:31.430Z,1015.12
2018-09-14T05:59:31.450Z,1015.12
2018-09-14T06:00:31.468Z,1015.11
2018-09-14T06:01:31.490Z,1015.14
2018-09-14T06:02:31.503Z,1015.16
2018-09-14T06:03:31.529Z,1015.19
2018-09-14T06:04:31.543Z,1015.20
2018-09-14T06:05:31.569Z,1015.24
2018-09-14T06:06:31.597Z,1015.19
2018-09-14T06:07:31.616Z,1015.22
2018-09-14T06:08:31.634Z,1015.22
2018-09-14T06:09:31.649Z,1015.26
2018-09-14T06:10:31.662Z,1015.25
2018-09-14T06:11:31.688Z,1015.29
2018-09-14T06:12:31.714Z,1015.29
2018-09-14T06:13:31.727Z,1015.32
2018-09-14T06:14:31.759Z,1015.35
2018-09-14T06:15:31.765Z,1015.35
2018-09-14T06:16:31.792Z,1015.34
2018-09-14T06:17:31.805Z,1015.38
2018-09-14T06:18:31.832Z,1015.39
2018-09-14T06:19:31.920Z,1015.38
2018-09-14T06:20:31.871Z,1015.37
2018-09-14T06:21:31.891Z,1015.42
2018-09-14T06:22:31.924Z,1015.42
2018-09-14T06:23:31.940Z,1015.43
2018-09-14T06:24:31.951Z,1015.45
2018-09-14T06:25:31.976Z,1015.41
2018-09-14T06:26:31.990Z,1015.45
2018-09-14T06:27:32.015Z,1015.45
2018-09-14T06:28:32.029Z,1015.47
2018-09-14T06:29:32.054Z,1015.39
2018-09-14T06:30:32.134Z,1015.42
2018-09-14T06:31:32.095Z,1015.42
2018-09-14T06:32:32.120Z,1015.42
2018-09-14T06:33:32.133Z,1015.47
2018-09-14T06:34:32.159Z,1015.46
2018-09-14T06:35:32.187Z,1015.45
2018-09-14T06:36:32.202Z,1015.46
2018-09-14T06:37:32.225Z,1015.43
2018-09-14T06:38:32.239Z,1015.43
2018-09-14T06:39:32.268Z,1015.43
2018-09-14T06:40:32.279Z,1015.45
2018-09-14T06:41:32.305Z,1015.43
2018-09-14T06:42:32.335Z,1015.44
2018-09-14T06:43:32.344Z,1015.44
2018-09-14T06:44:32.369Z,1015.45
2018-09-14T06:45:32.472Z,1015.47
2018-09-14T06:46:32.410Z,1015.46
2018-09-14T06:47:32.436Z,1015.44
2018-09-14T06:48:32.449Z,1015.47
2018-09-14T06:49:32.475Z,1015.47
2018-09-14T06:50:32.500Z,1015.43
2018-09-14T06:51:32.515Z,1015.47
2018-09-14T06:52:32.543Z,1015.47
2018-09-14T06:53:32.567Z,1015.46
2018-09-14T06:54:32.583Z,1015.49
2018-09-14T06:55:32.605Z,1015.48
2018-09-14T06:56:32.633Z,1015.47
2018-09-14T06:57:32.646Z,1015.49
2018-09-14T06:58:32.672Z,1015.49
2018-09-14T06:59:32.697Z,1015.50
2018-09-14T07:00:32.744Z,1015.51
2018-09-14T07:01:32.737Z,1015.53
2018-09-14T07:02:32.750Z,1015.51
2018-09-14T07:03:32.777Z,1015.49
2018-09-14T07:04:32.803Z,1015.52
2018-09-14T07:05:32.827Z,1015.53
2018-09-14T07:06:32.882Z,1015.56
2018-09-14T07:07:32.868Z,1015.55
2018-09-14T07:08:32.882Z,1015.59
2018-09-14T07:09:32.907Z,1015.62
2018-09-14T07:10:32.934Z,1015.60
2018-09-14T07:11:33.007Z,1015.57
2018-09-14T07:12:32.988Z,1015.61
2018-09-14T07:13:33.000Z,1015.59
2018-09-14T07:14:33.014Z,1015.63
2018-09-14T07:15:33.038Z,1015.60
2018-09-14T07:16:33.065Z,1015.58
2018-09-14T07:17:33.077Z,1015.57
2018-09-14T07:18:33.103Z,1015.59
2018-09-14T07:19:33.128Z,1015.60
2018-09-14T07:20:33.142Z,1015.61
2018-09-14T07:21:33.168Z,1015.61
2018-09-14T07:22:33.195Z,1015.62
2018-09-14T07:23:33.220Z,1015.65
2018-09-14T07:24:33.382Z,1015.68
2018-09-14T07:25:33.272Z,1015.68
2018-09-14T07:26:33.300Z,1015.70
2018-09-14T07:27:33.309Z,1015.70
2018-09-14T07:28:33.336Z,1015.71
2018-09-14T07:29:33.354Z,1015.74
2018-09-14T07:30:33.374Z,1015.69
2018-09-14T07:31:33.437Z,1015.73
2018-09-14T07:32:33.416Z,1015.71
2018-09-14T07:33:33.430Z,1015.71
2018-09-14T07:34:33.469Z,1015.67
2018-09-14T07:35:33.482Z,1015.66
2018-09-14T07:36:33.567Z,1015.70
2018-09-14T07:37:33.523Z,1015.73
2018-09-14T07:38:33.547Z,1015.75
2018-09-14T07:39:33.574Z,1015.71
2018-09-14T07:40:33.590Z,1015.74
2018-09-14T07:41:33.614Z,1015.75
2018-09-14T07:42:33.700Z,1015.73
2018-09-14T07:43:33.665Z,1015.78
2018-09-14T07:44:33.677Z,1015.79
2018-09-14T07:45:33.703Z,1015.80
2018-09-14T07:46:33.730Z,1015.81
2018-09-14T07:47:33.755Z,1015.79
2018-09-14T07:48:33.770Z,1015.78
2018-09-14T07:49:33.802Z,1015.82
2018-09-14T07:50:33.821Z,1015.83
2018-09-14T07:51:33.849Z,1015.86
2018-09-14T07:52:33.862Z,1015.85
2018-09-14T07:53:33.887Z,1015.84
2018-09-14T07:54:33.913Z,1015.87
2018-09-14T07:55:33.981Z,1015.89
2018-09-14T07:56:33.964Z,1015.87
2018-09-14T07:57:33.981Z,1015.86
2018-09-14T07:58:34.005Z,1015.87
2018-09-14T07:59:34.031Z,1015.88
2018-09-14T08:00:34.057Z,1015.89
2018-09-14T08:01:34.082Z,1015.92
2018-09-14T08:02:34.095Z,1015.92
2018-09-14T08:03:34.123Z,1015.93
2018-09-14T08:04:34.147Z,1015.95
2018-09-14T08:05:34.174Z,1015.94
2018-09-14T08:06:34.201Z,1015.96
2018-09-14T08:07:34.217Z,1015.96
2018-09-14T08:08:34.240Z,1016.01
2018-09-14T08:09:34.266Z,1016.00
2018-09-14T08:10:34.292Z,1016.00
2018-09-14T08:11:34.320Z,1016.04
2018-09-14T08:12:34.344Z,1016.02
2018-09-14T08:13:34.363Z,1016.04
2018-09-14T08:14:34.383Z,1016.03
2018-09-14T08:15:34.409Z,1016.05
2018-09-14T08:16:34.436Z,1016.04
2018-09-14T08:17:34.461Z,1016.00
2018-09-14T08:18:34.487Z,1016.03
2018-09-14T08:19:34.513Z,1016.05
2018-09-14T08:20:34.529Z,1016.07
2018-09-14T08:21:34.608Z,1016.09
2018-09-14T08:22:34.579Z,1016.06
2018-09-14T08:23:34.606Z,1016.04
2018-09-14T08:24:34.631Z,1016.05
2018-09-14T08:25:34.658Z,1016.06
2018-09-14T08:26:34.688Z,1016.02
2018-09-14T08:27:34.712Z,1016.00
2018-09-14T08:28:34.736Z,1016.04
2018-09-14T08:29:34.760Z,1016.05
2018-09-14T08:30:34.774Z,1016.02
2018-09-14T08:31:34.801Z,1016.06
2018-09-14T08:32:34.827Z,1016.07
2018-09-14T08:33:34.851Z,1016.03
2018-09-14T08:34:34.878Z,1016.04
2018-09-14T08:35:34.917Z,1016.04
2018-09-14T08:36:34.931Z,1016.06
2018-09-14T08:37:34.970Z,1016.06
2018-09-14T08:38:34.982Z,1016.03
2018-09-14T08:39:35.008Z,1016.03
2018-09-14T08:40:35.022Z,1016.08
2018-09-14T08:41:35.048Z,1016.06
2018-09-14T08:42:35.076Z,1016.05
2018-09-14T08:43:35.100Z,1016.03
2018-09-14T08:44:35.126Z,1016.04
2018-09-14T08:45:35.152Z,1015.99
2018-09-14T08:46:35.178Z,1016.03
2018-09-14T08:47:35.204Z,1016.01
2018-09-14T08:48:35.230Z,1016.02
2018-09-14T08:49:35.258Z,1016.01
2018-09-14T08:50:35.282Z,1016.00
2018-09-14T08:51:35.308Z,1015.99
2018-09-14T08:52:35.334Z,1015.95
2018-09-14T08:53:35.380Z,1015.97
2018-09-14T08:54:35.374Z,1015.97
2018-09-14T08:55:35.401Z,1015.96
2018-09-14T08:56:35.438Z,1015.95
2018-09-14T08:57:35.450Z,1015.95
2018-09-14T08:58:35.476Z,1015.93
2018-09-14T08:59:35.503Z,1015.89
2018-09-14T09:00:35.547Z,1015.91
2018-09-14T09:01:35.555Z,1015.89
2018-09-14T09:02:35.593Z,1015.89
2018-09-14T09:03:35.607Z,1015.91
2018-09-14T09:04:35.632Z,1015.92
2018-09-14T09:05:35.658Z,1015.89
2018-09-14T09:06:35.684Z,1015.91
2018-09-14T09:07:35.747Z,1015.94
2018-09-14T09:08:35.725Z,1016.00
2018-09-14T09:09:35.751Z,1016.00
2018-09-14T09:10:35.787Z,1016.00
2018-09-14T09:11:35.802Z,1016.03
2018-09-14T09:12:35.827Z,1016.04
2018-09-14T09:13:35.854Z,1016.07
2018-09-14T09:14:35.879Z,1016.10
2018-09-14T09:15:35.906Z,1016.12
2018-09-14T09:16:35.931Z,1016.09
2018-09-14T09:17:36.016Z,1016.08
2018-09-14T09:18:35.984Z,1016.05
2018-09-14T09:19:36.011Z,1016.06
2018-09-14T09:20:36.036Z,1016.04
2018-09-14T09:21:36.063Z,1016.07
2018-09-14T09:22:36.090Z,1016.04
2018-09-14T09:23:36.116Z,1016.06
2018-09-14T09:24:36.127Z,1016.05
2018-09-14T09:25:36.152Z,1016.06
2018-09-14T09:26:36.182Z,1016.01
2018-09-14T09:27:36.204Z,1016.04
2018-09-14T09:28:36.230Z,1016.07
2018-09-14T09:29:36.333Z,1016.03
2018-09-14T09:30:36.284Z,1016.00
2018-09-14T09:31:36.308Z,1015.99
2018-09-14T09:32:36.339Z,1016.02
2018-09-14T09:33:36.360Z,1016.02
2018-09-14T09:34:36.385Z,1016.04
2018-09-14T09:35:36.411Z,1016.04
2018-09-14T09:36:36.438Z,1016.06
2018-09-14T09:37:36.464Z,1016.09
2018-09-14T09:38:36.503Z,1016.07
2018-09-14T09:39:36.517Z,1016.04
2018-09-14T09:40:36.541Z,1016.07
2018-09-14T09:41:36.572Z,1016.08
2018-09-14T09:42:36.593Z,1016.06
2018-09-14T09:43:36.829Z,1016.06
2018-09-14T09:44:36.659Z,1015.99
2018-09-14T09:45:36.672Z,1016.01
2018-09-14T09:46:36.699Z,1015.98
2018-09-14T09:47:36.725Z,1016.03
2018-09-14T09:48:36.750Z,1016.00
2018-09-14T09:49:36.776Z,1016.01
2018-09-14T09:50:36.802Z,1015.99
2018-09-14T09:51:36.827Z,1015.99
2018-09-14T09:52:36.854Z,1016.00
2018-09-14T09:53:36.884Z,1015.98
2018-09-14T09:54:36.905Z,1016.02
2018-09-14T09:55:36.934Z,1015.98
2018-09-14T09:56:37.011Z,1015.97
2018-09-14T09:57:36.984Z,1015.93
2018-09-14T09:58:37.009Z,1015.94
2018-09-14T09:59:37.050Z,1015.94
2018-09-14T10:00:37.062Z,1015.93
2018-09-14T10:01:37.088Z,1015.95
2018-09-14T10:02:37.114Z,1015.91
2018-09-14T10:03:37.185Z,1015.93
2018-09-14T10:04:37.169Z,1015.92
2018-09-14T10:05:37.196Z,1015.92
2018-09-14T10:06:37.218Z,1015.89
2018-09-14T10:07:37.245Z,1015.88
2018-09-14T10:08:37.282Z,1015.83
2018-09-14T10:09:37.296Z,1015.85
2018-09-14T10:10:37.322Z,1015.84
2018-09-14T10:11:37.347Z,1015.82
2018-09-14T10:12:37.374Z,1015.83
2018-09-14T10:13:37.400Z,1015.85
2018-09-14T10:14:37.428Z,1015.80
2018-09-14T10:15:37.451Z,1015.84
2018-09-14T10:16:37.478Z,1015.82
2018-09-14T10:17:37.504Z,1015.80
2018-09-14T10:18:37.531Z,1015.81
2018-09-14T10:19:37.574Z,1015.81
2018-09-14T10:20:37.616Z,1015.85
2018-09-14T10:21:37.662Z,1015.87
2018-09-14T10:22:37.647Z,1015.93
2018-09-14T10:23:37.674Z,1015.90
2018-09-14T10:24:37.701Z,1015.90
2018-09-14T10:25:37.726Z,1015.90
2018-09-14T10:26:37.804Z,1015.93
2018-09-14T10:27:37.777Z,1015.90
2018-09-14T10:28:37.802Z,1015.92
2018-09-14T10:29:37.828Z,1015.93
2018-09-14T10:30:37.856Z,1015.90
2018-09-14T10:31:37.880Z,1015.89
2018-09-14T10:32:37.906Z,1015.91
2018-09-14T10:33:37.932Z,1015.88
2018-09-14T10:34:37.958Z,1015.84
2018-09-14T10:35:37.985Z,1015.87
2018-09-14T10:36:38.010Z,1015.86
2018-09-14T10:37:38.036Z,1015.87
2018-09-14T10:38:38.062Z,1015.85
2018-09-14T10:39:38.088Z,1015.85
2018-09-14T10:40:38.158Z,1015.85
2018-09-14T10:41:38.140Z,1015.84
2018-09-14T10:42:38.172Z,1015.83
2018-09-14T10:43:38.191Z,1015.81
2018-09-14T10:44:38.219Z,1015.84
2018-09-14T10:45:38.235Z,1015.84
2018-09-14T10:46:38.257Z,1015.84
2018-09-14T10:47:38.284Z,1015.87
2018-09-14T10:48:38.317Z,1015.87
2018-09-14T10:49:38.348Z,1015.88
2018-09-14T10:50:38.360Z,1015.87
2018-09-14T10:51:38.385Z,1015.86
2018-09-14T10:52:38.412Z,1015.87
2018-09-14T10:53:38.439Z,1015.84
2018-09-14T10:54:38.503Z,1015.82
2018-09-14T10:55:38.491Z,1015.81
2018-09-14T10:56:38.516Z,1015.83
2018-09-14T10:57:38.542Z,1015.81
2018-09-14T10:58:38.568Z,1015.84
2018-09-14T10:59:38.595Z,1015.81
2018-09-14T11:00:38.631Z,1015.85
2018-09-14T11:01:38.647Z,1015.80
2018-09-14T11:02:38.672Z,1015.81
2018-09-14T11:03:38.700Z,1015.83
2018-09-14T11:04:38.725Z,1015.78
2018-09-14T11:05:38.750Z,1015.76
2018-09-14T11:06:38.844Z,1015.74
2018-09-14T11:07:38.802Z,1015.73
2018-09-14T11:08:38.831Z,1015.78
2018-09-14T11:09:38.853Z,1015.72
2018-09-14T11:10:38.881Z,1015.77
2018-09-14T11:11:38.906Z,1015.73
2018-09-14T11:12:38.973Z,1015.76
2018-09-14T11:13:38.957Z,1015.73
2018-09-14T11:14:38.986Z,1015.73
2018-09-14T11:15:39.009Z,1015.74
2018-09-14T11:16:39.038Z,1015.70
2018-09-14T11:17:39.062Z,1015.72
2018-09-14T11:18:39.152Z,1015.68
2018-09-14T11:19:39.127Z,1015.65
2018-09-14T11:20:39.186Z,1015.67
2018-09-14T11:21:39.167Z,1015.64
2018-09-14T11:22:39.192Z,1015.64
2018-09-14T11:23:39.221Z,1015.61
2018-09-14T11:24:39.311Z,1015.59
2018-09-14T11:25:39.308Z,1015.55
2018-09-14T11:26:39.296Z,1015.58
2018-09-14T11:27:39.322Z,1015.57
2018-09-14T11:28:39.349Z,1015.61
2018-09-14T11:29:39.375Z,1015.56
2018-09-14T11:30:39.399Z,1015.58
2018-09-14T11:31:39.416Z,1015.55
2018-09-14T11:32:39.440Z,1015.55
2018-09-14T11:33:39.477Z,1015.55
2018-09-14T11:34:39.505Z,1015.59
2018-09-14T11:35:39.518Z,1015.56
2018-09-14T11:36:39.543Z,1015.62
2018-09-14T11:37:39.603Z,1015.58
2018-09-14T11:38:39.805Z,1015.59
2018-09-14T11:39:39.625Z,1015.56
2018-09-14T11:40:39.647Z,1015.55
2018-09-14T11:41:39.674Z,1015.54
2018-09-14T11:42:39.702Z,1015.51
2018-09-14T11:43:39.732Z,1015.55
2018-09-14T11:44:39.751Z,1015.52
2018-09-14T11:45:39.777Z,1015.52
2018-09-14T11:46:39.807Z,1015.52
2018-09-14T11:47:39.829Z,1015.51
2018-09-14T11:48:39.844Z,1015.51
2018-09-14T11:49:39.870Z,1015.52
2018-09-14T11:50:39.894Z,1015.53
2018-09-14T11:51:39.920Z,1015.50
2018-09-14T11:52:39.958Z,1015.51
2018-09-14T11:53:39.973Z,1015.49
2018-09-14T11:54:40.000Z,1015.55
2018-09-14T11:55:40.027Z,1015.44
2018-09-14T11:56:40.051Z,1015.52
2018-09-14T11:57:40.076Z,1015.47
2018-09-14T11:58:40.102Z,1015.46
2018-09-14T11:59:40.129Z,1015.45
2018-09-14T12:00:40.154Z,1015.44
2018-09-14T12:01:40.198Z,1015.40
2018-09-14T12:02:40.206Z,1015.41
2018-09-14T12:03:40.232Z,1015.45
2018-09-14T12:04:40.258Z,1015.44
2018-09-14T12:05:40.284Z,1015.44